Time;durP1;ratioP1;P1;durP2;ratioP2;P2;SDS_P1;SDS_P2;PMS_P1;PMS_P2;Temp;Humidity;BMP_temperature;BMP_pressure;BME280_temperature;BME280_humidity;BME280_pressure;Samples;Min_cycle;Max_cycle;Signal;HPM_P1;HPM_P2
2023/06/26 03:59:21;;;;;;;4.78;4.45;;;12.90;99.90;;;;;;4937561;29;20256;-64
2023/06/26 04:01:48;;;;;;;5.20;4.80;;;13.20;99.90;;;;;;4938253;29;20213;-64
2023/06/26 04:04:14;;;;;;;5.47;5.07;;;13.60;99.90;;;;;;4938592;29;20211;-64
2023/06/26 04:06:41;;;;;;;5.28;4.82;;;14.00;99.90;;;;;;4938613;29;20661;-64
2023/06/26 04:09:08;;;;;;;5.20;4.78;;;14.40;99.90;;;;;;4938861;29;20232;-64
2023/06/26 04:11:35;;;;;;;5.80;5.30;;;14.90;99.90;;;;;;4938118;29;20676;-65
2023/06/26 04:14:02;;;;;;;5.55;5.10;;;15.40;99.90;;;;;;4938490;29;20209;-65
2023/06/26 04:16:30;;;;;;;5.47;4.97;;;15.90;99.90;;;;;;4938305;29;20252;-67
2023/06/26 04:18:57;;;;;;;5.40;4.90;;;16.50;99.90;;;;;;4938223;29;20224;-64
2023/06/26 04:21:25;;;;;;;5.63;5.15;;;17.10;99.90;;;;;;4938293;29;20201;-65
2023/06/26 04:23:52;;;;;;;5.93;5.43;;;17.80;99.90;;;;;;4938276;29;20200;-69
2023/06/26 04:26:19;;;;;;;5.63;5.22;;;18.60;99.90;;;;;;4938105;29;20208;-65
2023/06/26 04:28:45;;;;;;;5.93;5.43;;;19.40;99.90;;;;;;4938057;29;20231;-64
2023/06/26 04:31:12;;;;;;;5.97;5.45;;;20.40;99.90;;;;;;4938112;29;20267;-64
2023/06/26 04:33:40;;;;;;;6.25;5.70;;;21.40;99.90;;;;;;4936977;29;20567;-65
2023/06/26 04:36:07;;;;;;;5.30;4.90;;;22.20;99.90;;;;;;4938001;29;20208;-65
2023/06/26 04:38:34;;;;;;;6.07;5.57;;;23.00;99.90;;;;;;4937807;29;20244;-64
2023/06/26 04:41:01;;;;;;;6.18;5.65;;;23.70;99.90;;;;;;4938039;29;20200;-64
2023/06/26 04:43:28;;;;;;;6.30;5.80;;;24.20;99.90;;;;;;4938195;29;20658;-64
2023/06/26 04:45:55;;;;;;;6.20;5.70;;;24.70;99.90;;;;;;4937859;29;20212;-66
2023/06/26 04:48:22;;;;;;;5.80;5.30;;;25.10;99.90;;;;;;4937852;29;20227;-67
2023/06/26 04:50:53;;;;;;;5.40;5.07;;;25.40;99.90;;;;;;4937823;29;20629;-66
2023/06/26 04:53:20;;;;;;;6.07;5.57;;;25.60;99.90;;;;;;4937723;29;20275;-66
2023/06/26 04:55:47;;;;;;;6.25;5.75;;;25.70;99.90;;;;;;4937709;29;20211;-66
2023/06/26 04:58:14;;;;;;;6.05;5.55;;;25.80;99.90;;;;;;4937461;29;20243;-66
2023/06/26 05:00:42;;;;;;;5.90;5.40;;;25.80;99.90;;;;;;4937224;29;20238;-66
2023/06/26 05:03:09;;;;;;;6.78;6.07;;;25.90;99.90;;;;;;4937642;29;20208;-67
2023/06/26 05:05:35;;;;;;;6.57;5.97;;;26.20;99.90;;;;;;4937785;29;20235;-67
2023/06/26 10:47:55;;;;;;;5.00;4.70;;;30.20;89.20;;;;;;5904561;23;20226;-71
2023/06/26 10:50:25;;;;;;;4.63;4.32;;;30.10;89.00;;;;;;4978290;28;20255;-70
2023/06/26 10:53:13;;;;;;;4.22;4.03;;;30.40;91.80;;;;;;4978975;28;20191;-70
2023/06/26 10:55:44;;;;;;;4.00;3.80;;;30.50;92.30;;;;;;4981942;28;20183;-70
2023/06/26 10:58:33;;;;;;;4.88;4.57;;;30.60;92.60;;;;;;4979788;28;20226;-70
2023/06/26 11:01:15;;;;;;;5.20;4.28;;;30.60;91.60;;;;;;4982085;28;20187;-71
2023/06/26 11:03:45;;;;;;;4.43;4.15;;;30.70;92.40;;;;;;4981210;28;20277;-70
2023/06/26 11:06:14;;;;;;;4.78;4.47;;;30.90;91.30;;;;;;4981188;28;20215;-70
2023/06/26 11:08:49;;;;;;;4.47;4.18;;;31.10;90.40;;;;;;4978509;28;20785;-70
2023/06/26 11:11:16;;;;;;;5.05;4.68;;;31.10;80.40;;;;;;4980508;28;20209;-70
2023/06/26 11:13:45;;;;;;;5.68;5.18;;;31.00;73.40;;;;;;4979701;28;20221;-70
2023/06/26 11:16:13;;;;;;;4.88;4.57;;;30.80;73.10;;;;;;4981126;28;20206;-71
2023/06/26 11:18:40;;;;;;;5.05;4.75;;;30.60;74.50;;;;;;4980697;28;20282;-71
2023/06/26 11:21:08;;;;;;;5.22;4.93;;;30.40;76.90;;;;;;4982360;28;20223;-71
2023/06/26 11:23:37;;;;;;;5.70;5.30;;;30.10;78.60;;;;;;4982134;28;20226;-70
2023/06/26 11:26:18;;;;;;;5.78;5.38;;;29.70;83.20;;;;;;4981456;28;20203;-70
2023/06/26 11:28:49;;;;;;;6.03;5.53;;;29.40;89.10;;;;;;4980785;28;20219;-70
2023/06/26 11:31:26;;;;;;;5.88;5.38;;;29.00;93.30;;;;;;4980228;28;20595;-70
2023/06/26 11:33:54;;;;;;;5.65;5.25;;;28.80;98.60;;;;;;4979158;28;20290;-70
2023/06/26 11:36:24;;;;;;;5.05;4.75;;;28.70;99.90;;;;;;4980554;28;20210;-70
2023/06/26 11:38:56;;;;;;;5.45;5.05;;;28.80;99.90;;;;;;4981735;28;20634;-70
2023/06/26 11:41:23;;;;;;;5.75;5.35;;;28.90;99.90;;;;;;4980322;28;20189;-70
2023/06/26 11:43:51;;;;;;;6.32;5.70;;;28.90;99.90;;;;;;4980871;28;20285;-70
2023/06/26 11:46:21;;;;;;;5.95;5.55;;;28.80;99.90;;;;;;4981214;28;20203;-70
2023/06/26 11:48:48;;;;;;;5.75;5.35;;;28.90;99.90;;;;;;4979169;28;20761;-69
2023/06/26 11:51:15;;;;;;;5.38;4.97;;;28.90;99.90;;;;;;4980010;28;20221;-69
2023/06/26 11:53:43;;;;;;;4.75;4.35;;;28.80;99.90;;;;;;4980294;28;20740;-69
2023/06/26 11:56:12;;;;;;;5.15;4.75;;;28.70;99.90;;;;;;4978054;28;20275;-69
2023/06/26 11:59:00;;;;;;;5.03;4.72;;;28.70;99.90;;;;;;4977246;28;20301;-70
2023/06/26 12:01:28;;;;;;;4.70;4.40;;;28.80;99.90;;;;;;4977448;28;20274;-70
2023/06/26 12:04:00;;;;;;;4.95;4.65;;;28.80;99.90;;;;;;4977480;28;20210;-70
2023/06/26 12:06:28;;;;;;;5.43;5.03;;;28.70;99.90;;;;;;4977499;28;20266;-70
2023/06/26 12:08:55;;;;;;;5.40;4.97;;;28.60;99.90;;;;;;4977295;28;20234;-70
2023/06/26 12:11:24;;;;;;;5.13;4.82;;;28.80;99.90;;;;;;4977237;28;20210;-70
2023/06/26 12:13:52;;;;;;;5.20;4.80;;;28.90;99.90;;;;;;4977614;28;20206;-70
2023/06/26 12:16:19;;;;;;;5.40;5.00;;;29.10;99.90;;;;;;4976925;28;20206;-70
2023/06/26 12:18:47;;;;;;;5.38;4.97;;;29.20;99.90;;;;;;4979741;28;20227;-70
2023/06/26 12:21:29;;;;;;;5.40;5.10;;;29.40;99.90;;;;;;4980913;28;20206;-70
2023/06/26 12:23:59;;;;;;;5.47;5.07;;;29.60;99.90;;;;;;4980454;28;20619;-70
2023/06/26 12:26:28;;;;;;;5.05;4.65;;;29.80;99.90;;;;;;4976911;28;20194;-70
2023/06/26 12:29:02;;;;;;;4.45;4.25;;;30.10;99.90;;;;;;4976557;28;20305;-70
2023/06/26 12:31:28;;;;;;;4.90;4.60;;;30.20;99.90;;;;;;4976572;28;20662;-70
2023/06/26 12:33:55;;;;;;;5.30;4.90;;;30.20;99.90;;;;;;4976780;28;20214;-70
2023/06/26 12:36:22;;;;;;;6.30;5.80;;;30.20;99.90;;;;;;4976708;28;20207;-70
2023/06/26 12:38:50;;;;;;;6.25;5.75;;;30.00;99.90;;;;;;4976464;28;20226;-69
2023/06/26 12:41:16;;;;;;;6.35;5.85;;;30.20;99.90;;;;;;4976144;28;20669;-70
2023/06/26 12:43:44;;;;;;;5.95;5.55;;;30.50;99.90;;;;;;4976552;28;20207;-70
2023/06/26 12:46:11;;;;;;;6.47;5.97;;;30.50;97.00;;;;;;4976550;28;20207;-70
2023/06/26 12:48:43;;;;;;;5.97;5.57;;;30.60;94.90;;;;;;4976320;28;20219;-70
2023/06/26 12:51:10;;;;;;;5.40;5.10;;;30.60;92.50;;;;;;4976088;28;20211;-70
2023/06/26 12:53:39;;;;;;;5.70;5.30;;;30.60;91.60;;;;;;4998308;23;20277;-68
2023/06/26 12:56:06;;;;;;;6.38;4.85;;;30.40;93.60;;;;;;4976146;28;20310;-67
2023/06/26 12:58:33;;;;;;;5.93;5.53;;;30.40;96.00;;;;;;4975721;28;20630;-67
2023/06/26 13:01:01;;;;;;;6.30;5.80;;;30.10;95.00;;;;;;4976066;28;20229;-67
2023/06/26 13:39:36;;;;;;;6.50;6.00;;;29.10;99.90;;;;;;4954816;28;20238;-71
2023/06/26 13:42:04;;;;;;;6.40;5.90;;;29.10;99.90;;;;;;4955777;29;20207;-71
2023/06/26 13:44:30;;;;;;;5.95;5.60;;;29.00;99.90;;;;;;4956051;29;20211;-71
2023/06/26 13:46:57;;;;;;;6.53;6.03;;;29.00;99.90;;;;;;4955926;29;20200;-71
2023/06/26 13:49:24;;;;;;;6.70;6.20;;;29.00;99.90;;;;;;4955880;29;20310;-71
2023/06/26 13:51:51;;;;;;;6.13;5.60;;;28.90;99.90;;;;;;4956238;29;20204;-70
2023/06/26 13:54:18;;;;;;;7.38;6.78;;;28.90;99.90;;;;;;4955716;29;20666;-70
2023/06/26 13:56:46;;;;;;;6.50;6.00;;;28.80;99.90;;;;;;4955947;29;20214;-70
2023/06/26 13:59:12;;;;;;;6.30;5.80;;;28.80;99.90;;;;;;4955692;29;20236;-70
2023/06/26 14:01:42;;;;;;;6.50;6.03;;;28.80;99.90;;;;;;4955940;29;20218;-70
2023/06/26 14:04:09;;;;;;;6.80;6.30;;;28.80;99.90;;;;;;4955769;28;20203;-70
2023/06/26 14:06:35;;;;;;;6.05;5.65;;;28.80;99.90;;;;;;4956102;29;20187;-70
2023/06/26 14:09:03;;;;;;;6.40;5.97;;;28.90;99.90;;;;;;4955738;29;20220;-71
2023/06/26 14:11:32;;;;;;;6.70;6.10;;;28.90;99.90;;;;;;4955652;29;20237;-71
2023/06/26 14:14:00;;;;;;;6.25;5.85;;;29.00;99.90;;;;;;4955758;29;20720;-70
2023/06/26 14:16:28;;;;;;;6.80;6.30;;;28.90;99.90;;;;;;4955455;29;20203;-70
2023/06/26 14:18:55;;;;;;;5.97;5.47;;;29.00;99.90;;;;;;4955544;29;20231;-70
2023/06/26 14:21:22;;;;;;;6.60;6.10;;;29.10;99.90;;;;;;4956606;29;20207;-69
2023/06/26 14:23:49;;;;;;;7.22;6.63;;;29.20;99.90;;;;;;4955758;29;20207;-69
2023/06/26 14:26:16;;;;;;;7.72;7.10;;;29.30;99.90;;;;;;4956025;29;20207;-69
2023/06/26 14:28:43;;;;;;;6.35;5.85;;;29.30;99.90;;;;;;4956008;29;20625;-69
2023/06/26 14:31:12;;;;;;;6.63;6.13;;;29.40;99.90;;;;;;4956271;29;20210;-70
2023/06/26 14:33:39;;;;;;;8.13;7.32;;;29.40;99.90;;;;;;4955803;29;20211;-70
2023/06/26 14:36:06;;;;;;;6.63;6.13;;;29.30;99.90;;;;;;4955564;29;20582;-70
2023/06/26 14:38:32;;;;;;;7.55;6.95;;;29.40;99.90;;;;;;4955449;29;20227;-69
2023/06/26 14:40:59;;;;;;;7.68;7.07;;;29.40;99.90;;;;;;4955207;29;20215;-69
2023/06/26 14:43:26;;;;;;;6.85;6.25;;;29.50;99.90;;;;;;4955582;29;20207;-69
2023/06/26 14:45:53;;;;;;;6.68;6.15;;;29.60;99.90;;;;;;4955604;29;20234;-69
2023/06/26 14:48:21;;;;;;;7.22;6.43;;;29.60;99.90;;;;;;4955078;29;20737;-70
2023/06/26 14:50:47;;;;;;;7.07;6.47;;;29.60;99.90;;;;;;4955386;29;20331;-70
2023/06/26 14:53:14;;;;;;;9.27;6.63;;;29.50;99.90;;;;;;4955380;29;20207;-70
2023/06/26 14:55:41;;;;;;;6.70;6.05;;;29.40;99.90;;;;;;4955240;29;20215;-70
2023/06/26 14:58:08;;;;;;;7.63;7.03;;;29.30;99.90;;;;;;4955476;29;20566;-70
2023/06/26 15:00:34;;;;;;;6.63;6.10;;;29.20;99.90;;;;;;4955472;29;20207;-70
2023/06/26 15:03:01;;;;;;;7.22;6.63;;;29.10;99.90;;;;;;4955558;29;20208;-70
2023/06/26 15:05:29;;;;;;;7.13;6.53;;;29.10;99.90;;;;;;4955285;29;20259;-70
2023/06/26 15:07:56;;;;;;;6.70;6.20;;;29.10;99.90;;;;;;4955413;29;20230;-70
2023/06/26 15:10:23;;;;;;;6.65;6.10;;;29.00;99.90;;;;;;4954874;29;20566;-69
2023/06/26 15:12:49;;;;;;;6.88;6.28;;;28.90;99.90;;;;;;4954979;29;20207;-69
2023/06/26 15:15:17;;;;;;;6.07;5.65;;;28.90;99.90;;;;;;4955166;29;20207;-69
2023/06/26 15:17:44;;;;;;;6.88;6.38;;;28.90;99.90;;;;;;4957406;28;20223;-69
2023/06/26 15:20:11;;;;;;;7.43;6.68;;;28.80;99.90;;;;;;4958575;29;20223;-69
2023/06/26 15:22:40;;;;;;;6.70;6.10;;;28.60;99.90;;;;;;4958791;29;20214;-69
2023/06/26 15:25:08;;;;;;;6.78;6.07;;;28.50;99.90;;;;;;4958335;29;20631;-69
2023/06/26 15:27:35;;;;;;;7.70;6.68;;;28.40;99.90;;;;;;4958130;29;20639;-69
2023/06/26 15:30:01;;;;;;;6.90;6.30;;;28.30;99.90;;;;;;4958432;29;20582;-69
2023/06/26 15:32:28;;;;;;;6.65;6.13;;;28.20;99.90;;;;;;4958540;29;20215;-69
2023/06/26 15:34:55;;;;;;;6.80;6.10;;;28.10;99.90;;;;;;4958346;29;20199;-69
2023/06/26 15:37:22;;;;;;;6.53;6.00;;;27.90;99.90;;;;;;4958508;29;20208;-70
2023/06/26 15:39:50;;;;;;;6.50;6.00;;;27.70;99.90;;;;;;4958472;29;20216;-69
2023/06/26 15:42:17;;;;;;;6.65;6.05;;;27.70;99.90;;;;;;4958621;29;20184;-70
2023/06/26 15:44:44;;;;;;;6.45;5.95;;;27.50;99.90;;;;;;4958768;29;20222;-70
2023/06/26 15:47:11;;;;;;;6.22;5.72;;;27.50;99.90;;;;;;4958285;29;20207;-69
2023/06/26 15:49:38;;;;;;;6.10;5.60;;;27.50;99.90;;;;;;4958353;29;20250;-69
2023/06/26 15:52:06;;;;;;;6.15;5.65;;;27.50;99.90;;;;;;4958376;29;20207;-69
2023/06/26 15:54:32;;;;;;;7.03;6.40;;;27.40;99.90;;;;;;4958208;29;20188;-69
2023/06/26 15:57:00;;;;;;;6.10;5.60;;;27.30;99.90;;;;;;4958035;29;20314;-68
2023/06/26 15:59:27;;;;;;;6.28;5.68;;;27.20;99.90;;;;;;4957532;29;20592;-68
2023/06/26 16:01:55;;;;;;;6.05;5.55;;;27.10;99.90;;;;;;4957893;29;20211;-69
2023/06/26 16:04:22;;;;;;;6.35;5.85;;;27.00;99.90;;;;;;4957836;29;20258;-68
2023/06/26 16:06:49;;;;;;;5.65;5.25;;;26.90;99.90;;;;;;4957894;29;20223;-68
2023/06/26 16:09:16;;;;;;;5.13;4.63;;;26.90;99.90;;;;;;4957733;29;20271;-68
2023/06/26 16:11:42;;;;;;;5.60;5.10;;;26.90;99.90;;;;;;4957716;29;20207;-68
2023/06/26 16:14:10;;;;;;;6.07;5.55;;;26.70;99.90;;;;;;4957728;29;20199;-68
2023/06/26 16:16:37;;;;;;;6.18;5.68;;;26.70;99.90;;;;;;4957898;29;20192;-68
2023/06/26 16:19:05;;;;;;;5.47;5.07;;;26.70;99.90;;;;;;4957826;29;20231;-68
2023/06/26 16:21:31;;;;;;;6.05;5.50;;;26.70;99.90;;;;;;4957643;29;20291;-68
2023/06/26 16:23:58;;;;;;;6.25;5.65;;;26.50;99.90;;;;;;4957579;29;20207;-68
2023/06/26 16:26:25;;;;;;;5.97;4.90;;;26.50;99.90;;;;;;4957698;29;20204;-68
2023/06/26 16:28:52;;;;;;;5.68;5.25;;;26.30;99.90;;;;;;4956039;28;20610;-68
2023/06/26 16:31:20;;;;;;;5.32;4.95;;;26.20;99.90;;;;;;4957499;29;20210;-68
2023/06/26 16:33:46;;;;;;;5.25;4.75;;;26.10;99.90;;;;;;4957371;29;20203;-68
2023/06/26 16:36:13;;;;;;;5.03;4.22;;;26.10;99.90;;;;;;4956909;29;20579;-68
2023/06/26 16:38:41;;;;;;;4.60;4.30;;;26.00;99.90;;;;;;4957244;29;20220;-68
2023/06/26 16:41:08;;;;;;;4.85;4.45;;;25.90;99.90;;;;;;4956871;29;20306;-68
2023/06/26 16:43:35;;;;;;;3.92;3.72;;;25.80;99.90;;;;;;4957093;29;20315;-68
2023/06/26 16:46:02;;;;;;;4.97;4.43;;;25.70;99.90;;;;;;4957122;29;20227;-68
2023/06/26 16:48:30;;;;;;;4.07;3.78;;;25.60;99.90;;;;;;4956982;29;20262;-68
2023/06/26 16:50:56;;;;;;;4.38;4.00;;;25.60;99.90;;;;;;4956984;29;20610;-70
2023/06/26 16:53:23;;;;;;;3.92;3.70;;;25.50;99.90;;;;;;4956833;29;20211;-68
2023/06/26 16:55:51;;;;;;;4.07;3.78;;;25.50;99.90;;;;;;4956876;29;20250;-67
2023/06/26 16:58:18;;;;;;;3.88;3.58;;;25.50;99.90;;;;;;4956758;29;20235;-67
2023/06/26 17:00:45;;;;;;;5.22;3.78;;;25.50;99.90;;;;;;4956763;29;20215;-66
2023/06/26 17:03:12;;;;;;;3.50;3.20;;;25.40;99.90;;;;;;4956713;29;20207;-66
2023/06/26 17:05:40;;;;;;;3.95;3.60;;;25.30;99.90;;;;;;4956414;29;20207;-66
2023/06/26 17:08:08;;;;;;;3.30;3.08;;;25.20;99.90;;;;;;4956296;29;20219;-68
2023/06/26 17:10:35;;;;;;;3.67;3.50;;;25.20;99.90;;;;;;4956023;29;20663;-68
2023/06/26 17:13:02;;;;;;;3.58;3.30;;;25.10;99.90;;;;;;4956115;29;20207;-68
2023/06/26 17:15:29;;;;;;;3.38;3.08;;;25.20;99.90;;;;;;4956658;29;20219;-67
2023/06/26 17:17:55;;;;;;;3.10;2.90;;;25.20;99.90;;;;;;4956040;29;20568;-68
2023/06/26 17:20:22;;;;;;;3.67;3.47;;;25.20;99.90;;;;;;4956452;29;20222;-67
2023/06/26 17:22:50;;;;;;;3.42;3.22;;;25.20;99.90;;;;;;4956373;29;20235;-67
2023/06/26 17:25:17;;;;;;;3.28;3.05;;;25.30;99.90;;;;;;4956242;29;20547;-67
2023/06/26 17:27:44;;;;;;;3.15;2.88;;;25.20;99.90;;;;;;4956165;29;20366;-66
2023/06/26 17:30:11;;;;;;;3.92;3.53;;;25.20;99.90;;;;;;4955990;29;20195;-66
2023/06/26 17:32:38;;;;;;;7.95;3.47;;;25.10;99.90;;;;;;4955833;29;20614;-66
2023/06/26 17:35:08;;;;;;;4.78;3.95;;;25.00;99.90;;;;;;4956076;29;20211;-68
2023/06/26 17:37:35;;;;;;;4.57;4.18;;;24.90;99.90;;;;;;4955918;29;20223;-68
2023/06/26 17:40:07;;;;;;;4.30;3.90;;;24.80;99.90;;;;;;4955423;28;20230;-68
2023/06/26 17:42:34;;;;;;;5.82;4.50;;;24.70;99.90;;;;;;4955863;29;20199;-67
2023/06/26 17:45:02;;;;;;;4.97;4.55;;;24.50;99.90;;;;;;4955982;29;20207;-68
2023/06/26 17:47:29;;;;;;;5.07;4.70;;;24.40;99.90;;;;;;4955798;29;20265;-68
2023/06/26 17:49:56;;;;;;;4.53;4.22;;;24.30;99.90;;;;;;4955928;29;20206;-68
2023/06/26 17:52:22;;;;;;;4.55;4.25;;;24.30;99.90;;;;;;4955902;29;20210;-68
2023/06/26 17:54:49;;;;;;;4.07;3.88;;;24.20;99.90;;;;;;4955591;29;20203;-68
2023/06/26 17:57:17;;;;;;;4.32;4.03;;;24.20;99.90;;;;;;4955441;29;20700;-68
2023/06/26 17:59:44;;;;;;;5.00;4.60;;;24.10;99.90;;;;;;4955768;29;20227;-68
2023/06/26 18:02:12;;;;;;;4.30;4.00;;;24.00;99.90;;;;;;4955562;29;20663;-68
2023/06/26 18:04:39;;;;;;;4.72;4.43;;;23.90;99.90;;;;;;4955667;29;20207;-68
2023/06/26 18:07:06;;;;;;;5.10;4.68;;;23.80;99.90;;;;;;4955782;29;20204;-68
2023/06/26 18:09:33;;;;;;;6.43;5.80;;;23.60;99.90;;;;;;4955741;29;20219;-68
2023/06/26 18:11:59;;;;;;;5.25;4.82;;;23.50;99.90;;;;;;4955647;29;20206;-67
2023/06/26 18:14:27;;;;;;;5.20;4.82;;;23.50;99.90;;;;;;4955572;29;20204;-67
2023/06/26 18:16:54;;;;;;;6.70;5.28;;;23.40;99.90;;;;;;4955761;29;20203;-67
2023/06/26 18:19:21;;;;;;;5.88;5.28;;;23.30;99.90;;;;;;4955472;29;20250;-67
2023/06/26 18:21:48;;;;;;;5.10;4.75;;;23.30;99.90;;;;;;4956567;29;20207;-67
2023/06/26 18:24:15;;;;;;;7.07;6.32;;;23.20;99.90;;;;;;4955514;29;20198;-68
2023/06/26 18:26:42;;;;;;;6.30;5.75;;;23.10;99.90;;;;;;4955541;29;20199;-68
2023/06/26 18:29:09;;;;;;;6.15;5.65;;;22.90;99.90;;;;;;4955508;29;20220;-68
2023/06/26 18:31:37;;;;;;;5.82;5.32;;;22.90;99.90;;;;;;4955435;29;20211;-68
2023/06/26 18:34:04;;;;;;;6.70;5.75;;;22.80;99.90;;;;;;4956010;29;20207;-68
2023/06/26 18:36:31;;;;;;;5.32;4.88;;;22.70;99.90;;;;;;4955541;29;20199;-69
2023/06/26 18:38:57;;;;;;;8.57;4.88;;;22.60;99.90;;;;;;4955616;29;20568;-69
2023/06/26 18:41:24;;;;;;;7.80;4.88;;;22.40;99.90;;;;;;4955460;29;20238;-68
2023/06/26 18:43:51;;;;;;;4.70;4.30;;;22.30;99.90;;;;;;4955617;29;20199;-68
2023/06/26 18:46:17;;;;;;;5.15;4.47;;;22.20;99.90;;;;;;4955655;29;20207;-68
2023/06/26 18:48:47;;;;;;;5.53;4.50;;;22.10;99.90;;;;;;4955336;29;20691;-68
2023/06/26 18:51:13;;;;;;;5.80;4.10;;;21.90;99.90;;;;;;4956230;28;20203;-67
2023/06/26 18:53:41;;;;;;;4.35;3.97;;;21.80;99.90;;;;;;4959104;29;20203;-68
2023/06/26 18:56:08;;;;;;;4.82;4.05;;;21.70;99.90;;;;;;4959283;29;20231;-68
2023/06/26 18:58:36;;;;;;;4.63;3.88;;;21.60;99.90;;;;;;4958641;29;20711;-68
2023/06/26 19:01:02;;;;;;;3.25;3.05;;;21.40;99.90;;;;;;4959187;29;20294;-70
2023/06/26 19:03:29;;;;;;;5.68;4.05;;;21.30;99.90;;;;;;4959163;29;20246;-67
2023/06/26 19:05:57;;;;;;;3.72;3.40;;;21.20;99.90;;;;;;4958843;29;20215;-67
2023/06/26 19:08:24;;;;;;;3.40;3.10;;;21.10;99.90;;;;;;4958744;29;20646;-68
2023/06/26 19:10:51;;;;;;;5.70;3.25;;;21.00;99.90;;;;;;4959378;29;20199;-68
2023/06/26 19:13:17;;;;;;;4.00;3.38;;;20.80;99.90;;;;;;4958977;29;20203;-67
2023/06/26 19:15:44;;;;;;;2.95;2.75;;;20.70;99.90;;;;;;4959009;29;20210;-67
2023/06/26 19:18:11;;;;;;;3.40;3.10;;;20.60;99.90;;;;;;4959181;29;20254;-66
2023/06/26 19:20:37;;;;;;;3.20;3.00;;;20.60;99.90;;;;;;4958693;29;20219;-66
2023/06/26 19:23:05;;;;;;;3.03;2.88;;;20.50;99.90;;;;;;4958658;29;20266;-67
2023/06/26 19:25:32;;;;;;;5.78;3.30;;;20.30;99.90;;;;;;4958660;29;20210;-66
2023/06/26 19:27:59;;;;;;;3.45;2.90;;;20.20;99.90;;;;;;4958722;29;20235;-67
2023/06/26 19:30:25;;;;;;;3.63;3.33;;;20.20;99.90;;;;;;4958616;29;20211;-67
2023/06/26 19:32:52;;;;;;;2.75;2.65;;;20.10;99.90;;;;;;4958526;29;20210;-67
2023/06/26 19:35:21;;;;;;;3.55;3.25;;;20.00;99.90;;;;;;4958206;29;20712;-67
2023/06/26 19:37:47;;;;;;;3.08;2.80;;;19.90;99.90;;;;;;4958507;29;20227;-66
2023/06/26 19:40:16;;;;;;;2.95;2.70;;;19.70;99.90;;;;;;4958376;29;20219;-67
2023/06/26 19:42:42;;;;;;;2.85;2.65;;;19.60;99.90;;;;;;4958473;29;20200;-67
2023/06/26 19:45:10;;;;;;;2.15;2.05;;;19.50;99.90;;;;;;4958562;29;20203;-68
2023/06/26 19:47:36;;;;;;;2.35;2.20;;;19.40;99.90;;;;;;4958340;29;20219;-69
2023/06/26 19:50:04;;;;;;;2.58;2.40;;;19.30;99.90;;;;;;4958304;29;20555;-67
2023/06/26 19:52:30;;;;;;;2.35;2.25;;;19.20;99.90;;;;;;4958544;29;20203;-66
2023/06/26 19:54:57;;;;;;;2.20;2.10;;;19.10;99.90;;;;;;4958099;29;20207;-66
2023/06/26 19:57:25;;;;;;;2.33;2.22;;;19.00;99.90;;;;;;4957596;29;20214;-66
2023/06/26 19:59:52;;;;;;;2.75;1.73;;;18.90;99.90;;;;;;4957417;29;20591;-67
2023/06/26 20:02:18;;;;;;;1.83;1.73;;;18.80;99.90;;;;;;4957889;28;20227;-66
2023/06/26 20:04:45;;;;;;;2.33;2.22;;;18.70;99.90;;;;;;4957805;29;20263;-66
2023/06/26 20:07:12;;;;;;;1.88;1.80;;;18.60;99.90;;;;;;4958109;29;20203;-68
2023/06/26 20:09:39;;;;;;;2.13;2.03;;;18.50;99.90;;;;;;4958061;29;20211;-68
2023/06/26 20:12:07;;;;;;;1.60;1.60;;;18.50;99.90;;;;;;4958263;29;20211;-67
2023/06/26 20:14:35;;;;;;;2.22;2.13;;;18.40;99.90;;;;;;4959250;29;20204;-67
2023/06/26 20:17:01;;;;;;;2.00;1.90;;;18.40;99.90;;;;;;4958034;29;20270;-67
2023/06/26 20:19:29;;;;;;;1.98;1.88;;;18.40;99.90;;;;;;4957668;29;20726;-67
2023/06/26 20:21:56;;;;;;;2.13;2.03;;;18.30;99.90;;;;;;4957964;29;20223;-67
2023/06/26 20:24:23;;;;;;;1.58;1.48;;;18.30;99.90;;;;;;4957696;29;20266;-68
2023/06/26 20:26:50;;;;;;;2.00;1.90;;;18.30;99.90;;;;;;4957767;29;20243;-67
2023/06/26 20:29:17;;;;;;;1.48;1.48;;;18.30;99.90;;;;;;4957571;29;20279;-67
2023/06/26 20:31:45;;;;;;;1.70;1.60;;;18.20;99.90;;;;;;4957817;29;20200;-67
2023/06/26 20:34:11;;;;;;;1.48;1.48;;;18.10;99.90;;;;;;4957051;29;20200;-67
2023/06/26 20:36:38;;;;;;;1.45;1.45;;;18.10;99.90;;;;;;4957153;29;20667;-67
2023/06/26 20:39:05;;;;;;;1.42;1.40;;;18.00;99.90;;;;;;4957239;29;20723;-67
2023/06/26 20:41:32;;;;;;;1.30;1.30;;;17.90;99.90;;;;;;4957082;29;20224;-66
2023/06/26 20:43:59;;;;;;;1.20;1.20;;;17.90;99.90;;;;;;4957504;29;20200;-66
2023/06/26 20:46:31;;;;;;;1.42;1.23;;;17.80;99.90;;;;;;4957353;29;20214;-66
2023/06/26 20:49:00;;;;;;;1.48;1.48;;;17.70;99.90;;;;;;4956915;29;20707;-66
2023/06/26 20:51:27;;;;;;;1.10;1.10;;;17.70;99.90;;;;;;4957261;29;20200;-66
2023/06/26 20:53:55;;;;;;;1.42;1.27;;;17.60;99.90;;;;;;4956674;29;20746;-66
2023/06/26 20:56:23;;;;;;;1.77;0.93;;;17.60;99.90;;;;;;4956988;29;20204;-66
2023/06/26 20:58:50;;;;;;;1.00;1.00;;;17.50;99.90;;;;;;4956867;29;20224;-66
2023/06/26 21:01:17;;;;;;;1.15;1.15;;;17.40;99.90;;;;;;4956812;29;20227;-66
2023/06/26 21:03:43;;;;;;;1.83;1.35;;;17.40;99.90;;;;;;4956838;29;20203;-66
2023/06/26 21:06:11;;;;;;;0.90;0.90;;;17.30;99.90;;;;;;4956679;29;20212;-66
2023/06/26 21:08:38;;;;;;;1.10;1.10;;;17.30;99.90;;;;;;4956521;29;20228;-66
2023/06/26 21:11:05;;;;;;;1.08;1.08;;;17.20;99.90;;;;;;4956697;29;20210;-66
